createdAt,value
2019-01-20T00:01:00.247Z,28.20
2019-01-20T00:03:28.907Z,23.40
2019-01-20T00:05:57.428Z,24.60
2019-01-20T00:08:26.100Z,22.48
2019-01-20T00:10:54.916Z,20.23
2019-01-20T00:13:23.543Z,20.37
2019-01-20T00:15:52.503Z,25.00
2019-01-20T00:18:21.203Z,27.20
2019-01-20T00:20:49.899Z,23.45
2019-01-20T00:23:18.540Z,22.05
2019-01-20T00:25:47.065Z,23.00
2019-01-20T00:28:15.468Z,26.75
2019-01-20T00:30:44.028Z,21.52
2019-01-20T00:33:13.766Z,23.92
2019-01-20T00:35:42.152Z,23.20
2019-01-20T00:38:10.897Z,29.20
2019-01-20T00:40:39.656Z,23.20
2019-01-20T00:43:08.122Z,23.07
2019-01-20T00:45:36.826Z,21.25
2019-01-20T00:48:05.616Z,26.97
2019-01-20T00:50:34.336Z,24.57
2019-01-20T00:53:03.307Z,25.08
2019-01-20T00:55:32.301Z,25.45
2019-01-20T00:58:01.252Z,25.85
2019-01-20T01:00:32.129Z,27.42
2019-01-20T01:03:00.765Z,24.18
2019-01-20T01:05:29.887Z,26.55
2019-01-20T01:07:58.745Z,27.05
2019-01-20T01:10:27.546Z,28.00
2019-01-20T01:12:57.313Z,23.22
2019-01-20T01:15:33.477Z,27.15
2019-01-20T01:18:02.150Z,28.02
2019-01-20T01:20:30.696Z,24.72
2019-01-20T01:22:59.179Z,27.82
2019-01-20T01:25:27.783Z,27.98
2019-01-20T01:27:56.277Z,22.42
2019-01-20T01:30:25.664Z,29.57
2019-01-20T01:32:54.313Z,27.80
2019-01-20T01:35:22.924Z,25.10
2019-01-20T01:37:51.631Z,27.20
2019-01-20T01:40:20.311Z,28.00
2019-01-20T01:42:50.280Z,25.82
2019-01-20T01:45:20.334Z,32.88
2019-01-20T01:47:48.936Z,29.35
2019-01-20T01:50:18.531Z,27.62
2019-01-20T01:52:47.204Z,24.95
2019-01-20T01:55:16.780Z,26.07
2019-01-20T01:57:45.249Z,26.97
2019-01-20T02:00:20.758Z,24.63
2019-01-20T02:02:49.689Z,24.72
2019-01-20T02:05:19.479Z,27.52
2019-01-20T02:07:48.173Z,28.60
2019-01-20T02:10:19.866Z,29.63
2019-01-20T02:12:51.203Z,27.77
2019-01-20T02:15:22.321Z,25.05
2019-01-20T02:17:51.140Z,27.67
2019-01-20T02:20:23.490Z,25.02
2019-01-20T02:22:52.506Z,27.58
2019-01-20T02:25:21.157Z,26.75
2019-01-20T02:27:53.057Z,26.10
2019-01-20T02:30:27.376Z,27.98
2019-01-20T02:32:56.105Z,32.17
2019-01-20T02:35:24.738Z,28.38
2019-01-20T02:37:53.542Z,26.75
2019-01-20T02:40:22.503Z,29.25
2019-01-20T02:42:51.182Z,26.17
2019-01-20T02:45:19.668Z,30.08
2019-01-20T02:47:48.134Z,30.60
2019-01-20T02:50:17.692Z,26.60
2019-01-20T02:52:46.333Z,27.58
2019-01-20T02:55:15.243Z,30.20
2019-01-20T02:57:44.286Z,25.17
2019-01-20T03:00:23.602Z,30.35
2019-01-20T03:02:52.560Z,31.10
2019-01-20T03:05:23.504Z,25.62
2019-01-20T03:07:52.137Z,35.38
2019-01-20T03:10:20.746Z,27.15
2019-01-20T03:12:49.259Z,26.27
2019-01-20T03:15:18.039Z,31.02
2019-01-20T03:17:46.536Z,28.07
2019-01-20T03:20:21.633Z,31.50
2019-01-20T03:22:50.940Z,28.15
2019-01-20T03:25:20.161Z,27.58
2019-01-20T03:27:48.730Z,27.07
2019-01-20T03:30:20.884Z,32.58
2019-01-20T03:32:49.585Z,29.60
2019-01-20T03:35:22.883Z,32.95
2019-01-20T03:37:51.812Z,32.38
2019-01-20T03:40:21.091Z,29.00
2019-01-20T03:42:49.911Z,32.88
2019-01-20T03:45:19.179Z,32.55
2019-01-20T03:47:49.170Z,29.10
2019-01-20T03:50:17.976Z,28.15
2019-01-20T03:52:46.933Z,29.60
2019-01-20T03:55:16.498Z,32.23
2019-01-20T03:57:45.332Z,28.57
2019-01-20T04:00:17.591Z,28.32
2019-01-20T04:02:49.451Z,27.05
2019-01-20T04:05:18.156Z,25.25
2019-01-20T04:07:46.655Z,25.68
2019-01-20T04:10:15.351Z,24.30
2019-01-20T04:12:44.343Z,24.90
2019-01-20T04:15:13.621Z,24.60
2019-01-20T04:17:42.544Z,29.00
2019-01-20T04:20:11.674Z,24.92
2019-01-20T04:22:41.696Z,23.20
2019-01-20T04:25:12.609Z,23.00
2019-01-20T04:27:41.663Z,25.32
2019-01-20T04:30:14.146Z,22.73
2019-01-20T04:32:42.707Z,22.85
2019-01-20T04:35:12.915Z,26.35
2019-01-20T04:37:41.535Z,29.48
2019-01-20T04:40:14.434Z,24.20
2019-01-20T04:42:43.830Z,21.90
2019-01-20T04:45:13.148Z,26.23
2019-01-20T04:47:41.666Z,23.50
2019-01-20T04:50:14.106Z,29.00
2019-01-20T04:52:42.810Z,26.60
2019-01-20T04:55:12.932Z,24.95
2019-01-20T04:57:42.576Z,23.40
2019-01-20T05:00:15.373Z,24.85
2019-01-20T05:02:43.974Z,24.10
2019-01-20T05:05:12.875Z,25.68
2019-01-20T05:07:41.466Z,25.65
2019-01-20T05:10:13.065Z,25.02
2019-01-20T05:12:42.586Z,25.90
2019-01-20T05:15:15.950Z,24.70
2019-01-20T05:17:44.555Z,22.87
2019-01-20T05:20:13.950Z,23.12
2019-01-20T05:22:43.458Z,25.65
2019-01-20T05:25:12.728Z,23.47
2019-01-20T05:27:42.034Z,39.27
2019-01-20T05:30:14.375Z,26.25
2019-01-20T05:32:43.107Z,26.97
2019-01-20T05:35:11.986Z,23.80
2019-01-20T05:37:40.897Z,28.50
2019-01-20T05:40:11.790Z,27.80
2019-01-20T05:42:46.019Z,27.32
2019-01-20T05:45:14.635Z,30.17
2019-01-20T05:47:43.374Z,23.73
2019-01-20T05:50:13.110Z,26.80
2019-01-20T05:52:41.662Z,24.92
2019-01-20T05:55:11.235Z,27.22
2019-01-20T05:57:39.925Z,24.20
2019-01-20T06:00:31.049Z,23.35
2019-01-20T06:02:59.511Z,21.68
2019-01-20T06:05:28.089Z,24.77
2019-01-20T06:07:56.542Z,27.35
2019-01-20T06:10:25.073Z,25.20
2019-01-20T06:12:54.557Z,27.55
2019-01-20T06:15:24.252Z,23.47
2019-01-20T06:17:53.010Z,22.52
2019-01-20T06:20:23.007Z,27.48
2019-01-20T06:22:51.775Z,25.40
2019-01-20T06:25:20.843Z,27.30
2019-01-20T06:27:49.439Z,22.35
2019-01-20T06:30:32.463Z,31.87
2019-01-20T06:33:01.276Z,24.02
2019-01-20T06:35:30.771Z,25.32
2019-01-20T06:37:59.529Z,23.40
2019-01-20T06:40:28.668Z,24.67
2019-01-20T06:43:01.672Z,23.38
2019-01-20T06:45:27.951Z,27.98
2019-01-20T06:47:57.088Z,24.47
2019-01-20T06:50:25.688Z,26.70
2019-01-20T06:52:54.559Z,23.65
2019-01-20T06:55:23.169Z,24.35
2019-01-20T06:57:52.159Z,26.68
2019-01-20T07:00:24.477Z,26.48
2019-01-20T07:02:54.511Z,28.67
2019-01-20T07:05:23.255Z,31.35
2019-01-20T07:07:53.448Z,31.90
2019-01-20T07:10:22.317Z,29.42
2019-01-20T07:12:50.952Z,30.12
2019-01-20T07:15:24.486Z,36.25
2019-01-20T07:17:53.364Z,32.38
2019-01-20T07:20:21.996Z,34.25
2019-01-20T07:22:50.984Z,33.18
2019-01-20T07:25:19.516Z,33.92
2019-01-20T07:27:48.102Z,31.95
2019-01-20T07:30:22.768Z,34.53
2019-01-20T07:32:51.292Z,30.60
2019-01-20T07:35:20.116Z,36.20
2019-01-20T07:37:48.835Z,33.13
2019-01-20T07:40:20.407Z,29.77
2019-01-20T07:42:49.058Z,35.45
2019-01-20T07:45:19.408Z,34.63
2019-01-20T07:47:48.118Z,36.58
2019-01-20T07:50:20.034Z,34.10
2019-01-20T07:52:48.559Z,31.90
2019-01-20T07:55:17.072Z,31.95
2019-01-20T07:57:46.100Z,31.10
2019-01-20T08:00:17.744Z,30.75
2019-01-20T08:02:46.519Z,29.82
2019-01-20T08:05:15.677Z,31.70
2019-01-20T08:07:44.208Z,28.70
2019-01-20T08:10:19.403Z,29.98
2019-01-20T08:12:48.153Z,41.28
2019-01-20T08:15:17.376Z,34.73
2019-01-20T08:17:46.696Z,32.90
2019-01-20T08:20:17.722Z,31.97
2019-01-20T08:22:46.394Z,32.25
2019-01-20T08:25:16.543Z,29.77
2019-01-20T08:27:45.284Z,32.38
2019-01-20T08:30:17.640Z,32.53
2019-01-20T08:32:46.284Z,32.50
2019-01-20T08:35:15.420Z,32.10
2019-01-20T08:37:43.925Z,47.78
2019-01-20T08:40:28.307Z,37.78
2019-01-20T08:42:56.859Z,34.50
2019-01-20T08:46:05.645Z,33.50
2019-01-20T08:48:34.309Z,38.30
2019-01-20T08:51:03.027Z,39.20
2019-01-20T08:53:31.516Z,38.00
2019-01-20T08:56:00.498Z,37.33
2019-01-20T08:58:29.081Z,35.30
2019-01-20T09:00:57.600Z,40.75
2019-01-20T09:03:26.128Z,34.58
2019-01-20T09:05:54.637Z,38.85
2019-01-20T09:08:23.187Z,35.65
2019-01-20T09:10:51.609Z,36.85
2019-01-20T09:13:21.914Z,35.65
2019-01-20T09:15:51.008Z,34.95
2019-01-20T09:18:19.571Z,34.95
2019-01-20T09:20:48.318Z,35.98
2019-01-20T09:23:16.943Z,38.50
2019-01-20T09:25:46.583Z,36.60
2019-01-20T09:28:15.225Z,40.08
2019-01-20T09:30:43.877Z,37.67
2019-01-20T09:33:12.853Z,37.73
2019-01-20T09:35:42.324Z,40.28
2019-01-20T09:38:13.695Z,37.17
2019-01-20T09:40:42.529Z,37.83
2019-01-20T09:43:11.211Z,39.58
2019-01-20T09:45:40.258Z,42.70
2019-01-20T09:48:10.611Z,41.13
2019-01-20T09:50:39.477Z,36.23
2019-01-20T09:53:08.526Z,34.55
2019-01-20T09:55:37.128Z,37.15
2019-01-20T09:58:06.904Z,32.93
2019-01-20T10:00:35.757Z,37.35
2019-01-20T10:03:04.911Z,31.70
2019-01-20T10:05:33.550Z,35.43
2019-01-20T10:08:02.236Z,37.73
2019-01-20T10:10:30.844Z,39.67
2019-01-20T10:12:59.333Z,38.38
2019-01-20T10:15:28.066Z,47.23
2019-01-20T10:17:56.864Z,43.33
2019-01-20T10:20:30.460Z,39.45
2019-01-20T10:22:59.110Z,49.55
2019-01-20T10:25:30.744Z,37.95
2019-01-20T10:27:59.876Z,44.40
2019-01-20T10:30:32.238Z,69.17
2019-01-20T10:33:03.681Z,49.88
2019-01-20T10:35:38.524Z,43.40
2019-01-20T10:38:08.857Z,38.42
2019-01-20T10:40:37.442Z,48.02
2019-01-20T10:43:07.314Z,48.15
2019-01-20T10:45:35.930Z,42.78
2019-01-20T10:48:05.169Z,51.02
2019-01-20T10:50:34.332Z,42.87
2019-01-20T10:53:03.276Z,42.73
2019-01-20T10:55:32.612Z,38.40
2019-01-20T10:58:01.894Z,44.23
2019-01-20T11:00:33.387Z,34.03
2019-01-20T11:03:04.403Z,39.93
2019-01-20T11:05:33.458Z,40.97
2019-01-20T11:08:02.580Z,40.52
2019-01-20T11:10:31.203Z,44.67
2019-01-20T11:13:01.565Z,36.97
2019-01-20T11:15:30.589Z,37.93
2019-01-20T11:17:59.034Z,36.40
2019-01-20T11:20:28.055Z,33.17
2019-01-20T11:22:56.595Z,31.93
2019-01-20T11:25:32.769Z,38.90
2019-01-20T11:28:02.686Z,32.10
2019-01-20T11:30:32.474Z,32.90
2019-01-20T11:33:01.015Z,34.93
2019-01-20T11:35:29.962Z,36.07
2019-01-20T11:37:59.057Z,34.60
2019-01-20T11:40:27.637Z,31.20
2019-01-20T11:42:56.519Z,28.57
2019-01-20T11:45:28.646Z,30.93
2019-01-20T11:47:57.302Z,29.07
2019-01-20T11:50:26.015Z,27.77
2019-01-20T11:52:54.530Z,30.37
2019-01-20T11:55:23.540Z,28.57
2019-01-20T11:57:52.011Z,29.40
2019-01-20T12:00:24.603Z,30.17
2019-01-20T12:02:55.005Z,27.40
2019-01-20T12:05:23.989Z,28.27
2019-01-20T12:07:54.168Z,34.33
2019-01-20T12:10:24.362Z,28.47
2019-01-20T12:13:12.711Z,26.57
2019-01-20T12:15:41.273Z,26.13
2019-01-20T12:18:10.236Z,25.77
2019-01-20T12:20:38.878Z,25.40
2019-01-20T12:23:07.431Z,25.30
2019-01-20T12:25:35.997Z,24.90
2019-01-20T12:28:04.641Z,28.33
2019-01-20T12:30:36.034Z,27.00
2019-01-20T12:33:06.384Z,26.53
2019-01-20T12:35:35.080Z,22.90
2019-01-20T12:38:04.021Z,23.90
2019-01-20T12:40:39.587Z,24.73
2019-01-20T12:43:08.459Z,24.53
2019-01-20T12:45:37.140Z,30.07
2019-01-20T12:48:06.068Z,22.67
2019-01-20T12:50:34.892Z,22.23
2019-01-20T12:53:03.629Z,23.47
2019-01-20T12:55:32.238Z,18.80
2019-01-20T12:58:00.731Z,23.23
2019-01-20T13:00:30.717Z,22.73
2019-01-20T13:02:59.267Z,22.50
2019-01-20T13:05:28.718Z,21.60
2019-01-20T13:07:57.231Z,20.17
2019-01-20T13:10:26.457Z,19.57
2019-01-20T13:12:54.943Z,17.30
2019-01-20T13:15:23.566Z,17.27
2019-01-20T13:17:52.287Z,21.53
2019-01-20T13:20:23.257Z,24.17
2019-01-20T13:22:51.809Z,17.93
2019-01-20T13:25:26.750Z,22.90
2019-01-20T13:27:55.528Z,22.47
2019-01-20T13:30:26.428Z,20.87
2019-01-20T13:32:55.299Z,21.63
2019-01-20T13:35:25.284Z,20.10
2019-01-20T13:38:12.366Z,18.57
2019-01-20T13:41:00.656Z,17.57
2019-01-20T13:43:29.219Z,20.93
2019-01-20T13:45:58.058Z,19.80
2019-01-20T13:48:27.286Z,19.10
2019-01-20T13:50:56.521Z,20.47
2019-01-20T13:53:25.093Z,22.17
2019-01-20T13:55:53.662Z,19.87
2019-01-20T13:58:22.232Z,18.40
2019-01-20T14:00:50.735Z,19.80
2019-01-20T14:03:19.351Z,18.20
2019-01-20T14:05:49.291Z,18.97
2019-01-20T14:08:17.796Z,21.67
2019-01-20T14:10:46.470Z,24.30
2019-01-20T14:13:15.009Z,20.30
2019-01-20T14:15:44.425Z,21.60
2019-01-20T14:18:12.961Z,21.33
2019-01-20T14:20:41.723Z,20.63
2019-01-20T14:23:10.130Z,21.20
2019-01-20T14:25:38.813Z,21.33
2019-01-20T14:28:07.406Z,22.00
2019-01-20T14:30:36.117Z,20.20
2019-01-20T14:33:05.023Z,19.77
2019-01-20T14:35:33.856Z,18.03
2019-01-20T14:38:02.467Z,23.43
2019-01-20T14:40:31.018Z,23.27
2019-01-20T14:42:59.566Z,22.67
2019-01-20T14:45:28.406Z,26.53
2019-01-20T14:47:56.916Z,23.13
2019-01-20T14:50:26.303Z,21.50
2019-01-20T14:52:55.207Z,22.57
2019-01-20T14:55:23.870Z,24.33
2019-01-20T14:57:52.944Z,41.37
2019-01-20T15:00:29.134Z,21.97
2019-01-20T15:02:58.073Z,43.80
2019-01-20T15:05:26.887Z,24.97
2019-01-20T15:07:55.824Z,26.17
2019-01-20T15:10:24.794Z,23.50
2019-01-20T15:12:53.677Z,20.40
2019-01-20T15:15:28.953Z,24.47
2019-01-20T15:17:57.372Z,24.63
2019-01-20T15:20:25.866Z,25.10
2019-01-20T15:22:54.414Z,38.20
2019-01-20T15:25:23.663Z,32.13
2019-01-20T15:27:52.158Z,33.47
2019-01-20T15:30:26.695Z,32.97
2019-01-20T15:32:55.847Z,47.93
2019-01-20T15:35:24.402Z,25.73
2019-01-20T15:37:52.938Z,26.17
2019-01-20T15:40:21.706Z,44.67
2019-01-20T15:42:51.661Z,62.47
2019-01-20T15:45:21.194Z,30.90
2019-01-20T15:47:52.403Z,30.10
2019-01-20T15:50:27.402Z,41.97
2019-01-20T15:52:56.447Z,39.03
2019-01-20T15:55:24.998Z,31.60
2019-01-20T15:57:54.098Z,31.10
2019-01-20T16:00:26.927Z,38.40
2019-01-20T16:02:55.623Z,45.37
2019-01-20T16:05:25.443Z,33.53
2019-01-20T16:07:54.937Z,87.97
2019-01-20T16:10:23.570Z,45.40
2019-01-20T16:12:52.082Z,46.90
2019-01-20T16:15:27.561Z,28.33
2019-01-20T16:17:57.072Z,25.40
2019-01-20T16:20:29.369Z,30.77
2019-01-20T16:22:58.302Z,35.03
2019-01-20T16:25:33.559Z,29.03
2019-01-20T16:28:02.415Z,28.23
2019-01-20T16:30:34.227Z,24.77
2019-01-20T16:33:03.078Z,26.23
2019-01-20T16:35:34.457Z,71.70
2019-01-20T16:38:05.818Z,91.83
2019-01-20T16:40:34.325Z,49.50
2019-01-20T16:43:02.874Z,46.67
2019-01-20T16:45:43.083Z,39.50
2019-01-20T16:48:12.485Z,32.20
2019-01-20T16:50:41.514Z,37.15
2019-01-20T16:53:11.143Z,31.67
2019-01-20T16:55:39.756Z,45.85
2019-01-20T16:58:08.401Z,56.77
2019-01-20T17:00:41.017Z,44.05
2019-01-20T17:03:10.213Z,44.03
2019-01-20T17:05:39.463Z,35.35
2019-01-20T17:08:10.098Z,34.45
2019-01-20T17:10:41.603Z,29.60
2019-01-20T17:13:11.464Z,27.17
2019-01-20T17:15:45.244Z,29.95
2019-01-20T17:18:15.325Z,30.08
2019-01-20T17:20:44.771Z,32.88
2019-01-20T17:23:13.416Z,28.93
2019-01-20T17:25:42.017Z,33.85
2019-01-20T17:28:10.653Z,33.15
2019-01-20T17:30:40.078Z,40.00
2019-01-20T17:33:10.043Z,47.70
2019-01-20T17:35:39.400Z,51.05
2019-01-20T17:38:08.200Z,44.10
2019-01-20T17:40:36.891Z,38.00
2019-01-20T17:43:06.518Z,39.40
2019-01-20T17:45:47.474Z,46.15
2019-01-20T17:48:13.609Z,37.83
2019-01-20T17:50:43.772Z,34.10
2019-01-20T17:53:12.660Z,34.33
2019-01-20T17:55:41.389Z,33.18
2019-01-20T17:58:11.526Z,33.53
2019-01-20T18:00:46.051Z,30.48
2019-01-20T18:03:15.890Z,34.45
2019-01-20T18:05:45.294Z,36.13
2019-01-20T18:08:14.448Z,33.02
2019-01-20T18:10:43.658Z,33.75
2019-01-20T18:13:13.349Z,36.13
2019-01-20T18:15:42.151Z,34.98
2019-01-20T18:18:11.259Z,35.98
2019-01-20T18:20:39.921Z,35.60
2019-01-20T18:23:08.537Z,35.52
2019-01-20T18:25:37.408Z,34.75
2019-01-20T18:28:06.092Z,34.80
2019-01-20T18:30:35.106Z,39.18
2019-01-20T18:33:05.387Z,40.05
2019-01-20T18:35:34.440Z,39.00
2019-01-20T18:38:03.411Z,33.25
2019-01-20T18:40:31.944Z,36.45
2019-01-20T18:43:00.503Z,34.58
2019-01-20T18:45:31.277Z,36.10
2019-01-20T18:47:59.804Z,37.10
2019-01-20T18:50:31.794Z,36.58
2019-01-20T18:53:00.699Z,41.48
2019-01-20T18:55:29.672Z,37.78
2019-01-20T18:57:58.402Z,36.50
2019-01-20T19:00:33.944Z,40.90
2019-01-20T19:03:02.607Z,33.55
2019-01-20T19:05:31.372Z,37.03
2019-01-20T19:08:00.395Z,34.38
2019-01-20T19:10:29.324Z,32.40
2019-01-20T19:12:57.877Z,33.13
2019-01-20T19:15:26.716Z,34.08
2019-01-20T19:17:55.153Z,28.67
2019-01-20T19:20:23.953Z,33.92
2019-01-20T19:22:54.828Z,40.17
2019-01-20T19:25:24.024Z,39.75
2019-01-20T19:27:53.256Z,41.35
2019-01-20T19:30:35.271Z,42.25
2019-01-20T19:33:04.918Z,44.65
2019-01-20T19:35:33.553Z,37.42
2019-01-20T19:38:02.209Z,44.30
2019-01-20T19:40:30.991Z,41.65
2019-01-20T19:42:59.370Z,40.73
2019-01-20T19:45:27.887Z,45.78
2019-01-20T19:47:58.075Z,44.40
2019-01-20T19:50:28.727Z,47.03
2019-01-20T19:52:58.510Z,37.75
2019-01-20T19:55:30.346Z,42.75
2019-01-20T19:57:59.006Z,39.50
2019-01-20T20:00:28.823Z,41.15
2019-01-20T20:02:57.468Z,60.40
2019-01-20T20:05:26.608Z,50.30
2019-01-20T20:07:56.899Z,46.30
2019-01-20T20:10:27.123Z,53.10
2019-01-20T20:12:57.823Z,40.05
2019-01-20T20:15:27.358Z,43.45
2019-01-20T20:17:55.904Z,42.23
2019-01-20T20:20:24.965Z,43.28
2019-01-20T20:22:54.148Z,42.70
2019-01-20T20:25:24.291Z,44.48
2019-01-20T20:27:53.009Z,41.23
2019-01-20T20:30:28.224Z,43.10
2019-01-20T20:32:56.916Z,37.05
2019-01-20T20:35:26.314Z,51.05
2019-01-20T20:37:55.112Z,43.30
2019-01-20T20:40:23.837Z,43.40
2019-01-20T20:42:52.300Z,45.60
2019-01-20T20:45:22.552Z,43.63
2019-01-20T20:47:51.741Z,45.63
2019-01-20T20:50:20.383Z,45.58
2019-01-20T20:52:49.384Z,45.85
2019-01-20T20:55:18.126Z,49.77
2019-01-20T20:57:46.693Z,53.17
2019-01-20T21:00:28.770Z,50.45
2019-01-20T21:02:57.596Z,45.33
2019-01-20T21:05:26.221Z,45.73
2019-01-20T21:07:54.992Z,47.93
2019-01-20T21:10:23.658Z,45.48
2019-01-20T21:12:52.248Z,48.25
2019-01-20T21:15:21.011Z,50.75
2019-01-20T21:17:51.033Z,50.73
2019-01-20T21:20:20.912Z,44.75
2019-01-20T21:22:50.461Z,48.58
2019-01-20T21:25:19.343Z,54.55
2019-01-20T21:27:47.940Z,48.05
2019-01-20T21:30:22.988Z,46.48
2019-01-20T21:32:51.599Z,57.08
2019-01-20T21:35:20.463Z,54.48
2019-01-20T21:37:49.051Z,49.05
2019-01-20T21:40:18.505Z,52.27
2019-01-20T21:42:48.132Z,53.87
2019-01-20T21:45:27.339Z,51.55
2019-01-20T21:47:57.136Z,56.48
2019-01-20T21:50:30.176Z,57.88
2019-01-20T21:52:59.319Z,48.52
2019-01-20T21:55:28.043Z,49.88
2019-01-20T21:57:56.602Z,53.48
2019-01-20T22:00:27.350Z,51.40
2019-01-20T22:02:56.199Z,46.30
2019-01-20T22:05:25.645Z,47.50
2019-01-20T22:07:54.359Z,48.83
2019-01-20T22:10:23.103Z,46.33
2019-01-20T22:12:51.726Z,48.60
2019-01-20T22:15:21.236Z,48.45
2019-01-20T22:17:50.509Z,44.03
2019-01-20T22:20:21.339Z,48.08
2019-01-20T22:22:50.484Z,46.92
2019-01-20T22:25:19.100Z,51.48
2019-01-20T22:27:47.598Z,41.18
2019-01-20T22:30:27.017Z,51.77
2019-01-20T22:32:55.780Z,42.70
2019-01-20T22:35:24.325Z,46.33
2019-01-20T22:37:52.911Z,43.98
2019-01-20T22:40:21.355Z,45.15
2019-01-20T22:42:49.864Z,45.40
2019-01-20T22:45:23.253Z,44.83
2019-01-20T22:47:51.940Z,44.70
2019-01-20T22:50:20.409Z,47.48
2019-01-20T22:52:48.887Z,45.30
2019-01-20T22:55:17.754Z,46.85
2019-01-20T22:57:46.955Z,52.27
2019-01-20T23:01:07.928Z,57.15
2019-01-20T23:03:36.279Z,66.17
2019-01-20T23:06:05.677Z,55.12
2019-01-20T23:08:34.195Z,58.15
2019-01-20T23:11:02.655Z,50.70
2019-01-20T23:13:31.128Z,53.78
2019-01-20T23:15:59.846Z,53.10
2019-01-20T23:18:28.341Z,54.38
2019-01-20T23:20:56.898Z,46.23
2019-01-20T23:23:25.440Z,49.15
2019-01-20T23:25:54.464Z,50.98
2019-01-20T23:28:23.004Z,48.10
2019-01-20T23:30:51.888Z,44.50
2019-01-20T23:33:20.585Z,46.90
2019-01-20T23:35:49.560Z,48.25
2019-01-20T23:38:18.522Z,46.77
2019-01-20T23:40:47.088Z,46.23
2019-01-20T23:43:15.697Z,39.60
2019-01-20T23:45:44.437Z,43.38
2019-01-20T23:48:13.038Z,37.17
2019-01-20T23:50:42.165Z,46.80
2019-01-20T23:53:10.602Z,44.77
2019-01-20T23:55:39.545Z,44.13
2019-01-20T23:58:08.133Z,38.42
